Flight Track Log - Related Links

Times and Time Zones

All times are in EDT time to prevent confusion due to time zone crossing. See the DAL3860 flight status page for this flight to view local times or setup timezone preferences in your user account.


Time Position Orientation Groundspeed Altitude Reporting Facility
EDT Latitude Longitude Course Direction KTS MPH feet Rate Location/Type
Fri 06:32:40 PM 39.2667 -94.7167 169° South 153 176 1,700  Level Kansas City TRACON
Fri 06:33:22 PM 39.2333 -94.7167 180° South 189 217 2,700 1,471 Climbing Kansas City TRACON
Fri 06:34:22 PM 39.1833 -94.7333 194° South 259 298 4,200 1,835 Climbing Kansas City TRACON
Fri 06:35:23 PM 39.1111 -94.7228 174° South 275 316 6,400 2,380 Climbing Kansas City Center
Fri 06:36:23 PM 39.0247 -94.6956 166° South 284 327 9,000 2,371 Climbing Kansas City Center
Fri 06:37:27 PM 38.9464 -94.6708 166° South 299 344 11,300 2,129 Climbing Kansas City Center
Fri 06:38:00 PM 38.7230 -94.5932 169° South  Level FlightAware Approximate
Fri 06:38:27 PM 38.8531 -94.6414 166° South 308 354 13,400  Level Kansas City Center
Fri 06:39:32 PM 38.7669 -94.6136 166° South 330 380 14,800 1,370 Climbing Kansas City Center
Fri 06:40:34 PM 38.6769 -94.5856 166° South 344 396 16,300 1,574 Climbing Kansas City Center
Fri 06:41:34 PM 38.5681 -94.5594 169° South 355 409 18,000 1,161 Climbing Kansas City Center
Fri 06:42:38 PM 38.4711 -94.5361 169° South 368 423 18,700 576 Climbing Kansas City Center
Fri 06:43:39 PM 38.3486 -94.5058 169° South 399 459 19,200 492 Climbing Kansas City Center
Fri 06:44:40 PM 38.2469 -94.4553 159° South 410 472 19,700 516 Climbing Kansas City Center
Fri 06:46:00 PM 38.1515 -94.3378 137° Southeast  Level FlightAware Approximate
Fri 06:46:45 PM 38.0689 -94.2303 137° Southeast 436 502 20,800  Level Kansas City Center
Fri 06:47:45 PM 37.9714 -94.1083 135° Southeast 441 507 21,400 484 Climbing Kansas City Center
Fri 06:48:49 PM 37.8933 -94.0089 135° Southeast 444 511 21,800 480 Climbing Kansas City Center
Fri 06:49:50 PM 37.7878 -93.8750 135° Southeast 448 516 22,400 528 Climbing Kansas City Center
Fri 06:50:54 PM 37.6994 -93.7647 124° Southeast 447 514 22,900 479 Climbing Kansas City Center
Fri 06:51:00 PM 37.7049 -93.7717 135° Southeast  Level FlightAware Approximate
Fri 06:52:58 PM 37.5250 -93.5467 135° Southeast 443 510 23,900  Level Kansas City Center
Fri 06:55:00 PM 37.3793 -93.3689 136° Southeast  Level FlightAware Approximate
Fri 06:56:03 PM 37.2711 -93.1686 136° Southeast 441 507 25,600  Level Kansas City Center
Fri 06:57:05 PM 37.2050 -93.0383 122° Southeast 441 507 26,100 488 Climbing Kansas City Center
Fri 06:58:00 PM 37.2371 -93.1236 124° Southeast  Level FlightAware Approximate
Fri 06:58:06 PM 37.1381 -92.9089 123° Southeast 443 510 26,600  Level Kansas City Center
Fri 06:59:10 PM 37.0728 -92.7814 123° Southeast 440 506 26,800 -144 Climbing Kansas City Center
Fri 07:00:11 PM 37.0056 -92.6514 123° Southeast 442 509 26,300 -488 Descending Kansas City Center
Fri 07:01:13 PM 36.9344 -92.5158 123° Southeast 455 524 25,800 -576 Descending Kansas City Center
Fri 07:02:16 PM 36.8189 -92.3817 137° Southeast 470 541 25,100 -387 Descending Kansas City Center
Fri 07:03:17 PM 36.7250 -92.2792 139° Southeast 459 528 25,000 -49 Descending Kansas City Center
Fri 07:04:18 PM 36.6367 -92.1842 139° Southeast 434 499 25,000  Level Kansas City Center
Fri 07:04:50 PM 36.5839 -92.1297 140° Southeast 429 494 25,000 -391 Level Memphis Center
Fri 07:05:50 PM 36.4956 -92.0375 140° Southeast 423 487 24,400 -500 Descending Memphis Center
Fri 07:06:50 PM 36.4197 -91.9431 135° Southeast 423 487 24,000 -250 Descending Memphis Center
Fri 07:07:26 PM 36.3747 -91.8814 132° Southeast 428 493 24,000  Level Kansas City Center
Fri 07:08:27 PM 36.2892 -91.7717 134° Southeast 438 504 24,000  Level Kansas City Center
Fri 07:09:29 PM 36.2031 -91.6600 134° Southeast 445 512 24,000  Level Kansas City Center
Fri 07:10:33 PM 36.1164 -91.5494 134° Southeast 446 513 24,000  Level Kansas City Center
Fri 07:11:34 PM 36.0114 -91.4172 134° Southeast 447 514 24,000 -569 Level Kansas City Center
Fri 07:12:50 PM 35.8864 -91.2717 137° Southeast 446 513 22,700 -1,721 Descending Memphis Center
Fri 07:13:50 PM 35.7994 -91.1606 134° Southeast 446 513 20,100 -2,550 Descending Memphis Center
Fri 07:14:50 PM 35.7189 -91.0550 133° Southeast 441 507 17,600 -2,400 Descending Memphis Center
Fri 07:15:50 PM 35.6483 -90.9600 132° Southeast 425 489 15,300 -2,400 Descending Memphis Center
Fri 07:16:50 PM 35.5694 -90.8625 135° Southeast 410 472 12,800 -2,500 Descending Memphis Center
Fri 07:17:50 PM 35.4928 -90.7675 135° Southeast 398 458 10,300 -1,400 Descending Memphis Center
Fri 07:18:50 PM 35.4306 -90.6781 130° Southeast 369 425 10,000 -500 Descending Memphis Center
Fri 07:19:50 PM 35.4119 -90.5761 103° East 323 372 9,300 -850 Descending Memphis Center
Fri 07:20:50 PM 35.3850 -90.4717 108° East 300 345 8,300 -1,400 Descending Memphis Center
Fri 07:21:50 PM 35.3619 -90.3800 107° East 283 326 6,500 -1,650 Descending Memphis Center
Fri 07:22:50 PM 35.3389 -90.2908 108° East 283 326 5,000 -750 Descending Memphis Center
Fri 07:23:50 PM 35.3181 -90.1992 106° East 283 326 5,000 -54 Level Memphis Center
Fri 07:24:41 PM 35.3167 -90.1167 91° East 272 313 4,900 -541 Descending Memphis TRACON
Fri 07:25:41 PM 35.3167 -90.0333 90° East 228 262 4,000 -500 Descending Memphis TRACON
Fri 07:26:41 PM 35.2833 -90.0000 141° Southeast 232 267 3,900 -500 Descending Memphis TRACON
Fri 07:27:41 PM 35.2167 -89.9833 168° South 226 260 3,000 -900 Descending Memphis TRACON

Login

Don't have an account? Register now (free) for customized features, flight alerts, and more!